Time;durP1;ratioP1;P1;durP2;ratioP2;P2;SDS_P1;SDS_P2;PMS_P1;PMS_P2;Temp;Humidity;BMP_temperature;BMP_pressure;BME280_temperature;BME280_humidity;BME280_pressure;Samples;Min_cycle;Max_cycle;Signal;HPM_P1;HPM_P2
2021/06/03 00:01:50;;;;;;;5.23;3.20;;;;;;;;;;5086940;28;20493;-66
2021/06/03 00:04:16;;;;;;;6.68;3.17;;;;;;;;;;5083880;28;20407;-65
2021/06/03 00:06:43;;;;;;;6.55;3.40;;;;;;;;;;5085904;28;21139;-66
2021/06/03 00:09:09;;;;;;;5.68;3.20;;;;;;;;;;5084949;28;20712;-66
2021/06/03 00:11:35;;;;;;;7.75;3.15;;;;;;;;;;5085405;28;20414;-66
2021/06/03 00:14:02;;;;;;;7.38;3.20;;;;;;;;;;5085248;28;20750;-65
2021/06/03 00:16:33;;;;;;;6.93;3.22;;;;;;;;;;5087162;28;20719;-66
2021/06/03 00:19:00;;;;;;;7.68;3.45;;;;;;;;;;5085500;28;20401;-66
2021/06/03 00:21:26;;;;;;;5.75;3.28;;;;;;;;;;5084447;28;20394;-65
2021/06/03 00:23:52;;;;;;;6.03;3.10;;;;;;;;;;5085639;28;20402;-66
2021/06/03 00:26:18;;;;;;;6.82;3.13;;;;;;;;;;5081936;28;20458;-66
2021/06/03 00:28:44;;;;;;;11.35;3.50;;;;;;;;;;5081289;28;20389;-65
2021/06/03 00:31:10;;;;;;;6.00;3.17;;;;;;;;;;5083228;28;20477;-66
2021/06/03 00:33:36;;;;;;;7.20;3.42;;;;;;;;;;5082930;28;20471;-66
2021/06/03 00:36:02;;;;;;;6.35;3.20;;;;;;;;;;5076800;28;20804;-66
2021/06/03 00:38:28;;;;;;;6.15;3.20;;;;;;;;;;5086194;28;20433;-66
2021/06/03 00:40:54;;;;;;;9.35;3.40;;;;;;;;;;5086508;28;20399;-66
2021/06/03 00:43:19;;;;;;;6.05;3.20;;;;;;;;;;5080466;28;20400;-67
2021/06/03 00:45:45;;;;;;;8.30;3.40;;;;;;;;;;5082767;28;21193;-66
2021/06/03 00:48:11;;;;;;;7.20;3.47;;;;;;;;;;5081744;28;20388;-66
2021/06/03 00:50:42;;;;;;;5.60;3.10;;;;;;;;;;5085135;28;20429;-65
2021/06/03 00:53:09;;;;;;;10.60;3.40;;;;;;;;;;5077670;28;20887;-66
2021/06/03 00:55:36;;;;;;;6.50;3.30;;;;;;;;;;5080559;28;20543;-66
2021/06/03 00:58:02;;;;;;;7.82;3.30;;;;;;;;;;5084803;28;20402;-66
2021/06/03 01:00:28;;;;;;;7.57;3.50;;;;;;;;;;5075738;28;20405;-66
2021/06/03 01:02:55;;;;;;;6.10;3.33;;;;;;;;;;5085792;28;20398;-66
2021/06/03 01:05:28;;;;;;;5.75;3.10;;;;;;;;;;5083436;28;20390;-65
2021/06/03 01:07:56;;;;;;;5.87;3.30;;;;;;;;;;5084614;28;20512;-66
2021/06/03 01:10:24;;;;;;;9.10;3.50;;;;;;;;;;5084158;28;20406;-66
2021/06/03 01:13:10;;;;;;;6.35;3.33;;;;;;;;;;5066716;28;20986;-66
2021/06/03 01:15:38;;;;;;;5.78;3.30;;;;;;;;;;5079014;28;20428;-66
2021/06/03 01:18:04;;;;;;;6.25;3.20;;;;;;;;;;5081301;28;20399;-66
2021/06/03 01:20:33;;;;;;;6.93;2.92;;;;;;;;;;5081850;28;20432;-66
2021/06/03 01:23:20;;;;;;;6.00;3.42;;;;;;;;;;5079863;28;20385;-66
2021/06/03 01:25:46;;;;;;;7.25;3.42;;;;;;;;;;5083413;28;20413;-66
2021/06/03 01:28:12;;;;;;;7.00;3.13;;;;;;;;;;5080638;28;20391;-67
2021/06/03 01:30:50;;;;;;;8.43;3.50;;;;;;;;;;5085885;28;20903;-66
2021/06/03 01:33:19;;;;;;;9.50;3.50;;;;;;;;;;5082690;28;20394;-67
2021/06/03 01:35:48;;;;;;;7.05;3.42;;;;;;;;;;5085724;28;20445;-65
2021/06/03 01:38:16;;;;;;;9.75;3.97;;;;;;;;;;5083699;28;20412;-66
2021/06/03 01:40:43;;;;;;;7.30;3.05;;;;;;;;;;5086996;28;20491;-66
2021/06/03 01:43:10;;;;;;;7.47;3.00;;;;;;;;;;5082012;28;20404;-67
2021/06/03 01:45:36;;;;;;;7.03;3.00;;;;;;;;;;5083718;28;20413;-66
2021/06/03 01:48:03;;;;;;;6.35;2.97;;;;;;;;;;5079399;28;20914;-66
2021/06/03 01:50:29;;;;;;;6.65;3.10;;;;;;;;;;5084288;28;20390;-66
2021/06/03 01:52:56;;;;;;;6.43;2.90;;;;;;;;;;5084769;28;20413;-65
2021/06/03 01:55:22;;;;;;;7.63;3.40;;;;;;;;;;5081768;28;20717;-66
2021/06/03 01:57:49;;;;;;;8.15;3.05;;;;;;;;;;5085672;28;20488;-66
2021/06/03 02:00:16;;;;;;;7.75;2.90;;;;;;;;;;5078899;28;20407;-66
2021/06/03 02:02:42;;;;;;;6.13;2.80;;;;;;;;;;5082883;28;20762;-66
2021/06/03 02:05:08;;;;;;;10.07;3.00;;;;;;;;;;5067823;28;20411;-66
2021/06/03 02:07:34;;;;;;;5.07;3.05;;;;;;;;;;5086574;28;20491;-66
2021/06/03 02:10:00;;;;;;;6.18;3.15;;;;;;;;;;5082423;28;20481;-66
2021/06/03 02:12:28;;;;;;;5.65;3.00;;;;;;;;;;5075711;28;20475;-67
2021/06/03 02:14:55;;;;;;;5.13;2.93;;;;;;;;;;5082124;28;20516;-66
2021/06/03 02:17:25;;;;;;;4.60;3.05;;;;;;;;;;5076794;28;20474;-66
2021/06/03 02:19:50;;;;;;;4.93;3.07;;;;;;;;;;5084168;28;20397;-65
2021/06/03 02:22:17;;;;;;;4.90;3.10;;;;;;;;;;5084960;28;20650;-66
2021/06/03 02:24:43;;;;;;;5.00;3.20;;;;;;;;;;5084623;28;20477;-66
2021/06/03 02:27:09;;;;;;;5.30;3.20;;;;;;;;;;5086930;28;20455;-66
2021/06/03 02:29:36;;;;;;;7.55;3.00;;;;;;;;;;5087189;28;20411;-66
2021/06/03 02:32:02;;;;;;;6.30;3.27;;;;;;;;;;5086094;28;20975;-66
2021/06/03 02:34:28;;;;;;;8.02;3.38;;;;;;;;;;5085009;28;20475;-66
2021/06/03 02:36:54;;;;;;;5.88;3.40;;;;;;;;;;5086612;28;20413;-66
2021/06/03 02:39:20;;;;;;;5.80;2.97;;;;;;;;;;5086126;28;20397;-66
2021/06/03 02:41:46;;;;;;;8.50;3.65;;;;;;;;;;5080135;28;20853;-66
2021/06/03 02:44:12;;;;;;;7.80;3.33;;;;;;;;;;5087465;28;20440;-66
2021/06/03 02:46:38;;;;;;;6.85;3.15;;;;;;;;;;5085477;28;20394;-66
2021/06/03 02:49:04;;;;;;;5.90;3.30;;;;;;;;;;5089467;28;20398;-65
2021/06/03 02:51:30;;;;;;;7.55;3.22;;;;;;;;;;5086684;28;20405;-65
2021/06/03 02:53:56;;;;;;;6.03;3.38;;;;;;;;;;5087442;28;20436;-66
2021/06/03 02:56:22;;;;;;;5.65;3.28;;;;;;;;;;5084483;28;20873;-65
2021/06/03 02:58:48;;;;;;;6.18;3.00;;;;;;;;;;5087415;28;20397;-66
2021/06/03 03:01:14;;;;;;;6.50;3.35;;;;;;;;;;5086471;28;20405;-66
2021/06/03 03:03:40;;;;;;;6.45;3.42;;;;;;;;;;5087494;28;20398;-65
2021/06/03 03:06:06;;;;;;;6.25;3.17;;;;;;;;;;5085844;28;20782;-66
2021/06/03 03:08:33;;;;;;;7.95;3.53;;;;;;;;;;5083816;28;20413;-66
2021/06/03 03:11:00;;;;;;;7.38;3.22;;;;;;;;;;5086540;28;20393;-66
2021/06/03 03:13:27;;;;;;;6.03;3.53;;;;;;;;;;5085001;28;20399;-66
2021/06/03 03:15:53;;;;;;;6.38;3.35;;;;;;;;;;5086097;28;20432;-66
2021/06/03 03:18:19;;;;;;;6.82;3.42;;;;;;;;;;5072634;28;20775;-66
2021/06/03 03:20:45;;;;;;;5.70;3.50;;;;;;;;;;5081891;28;20430;-66
2021/06/03 03:23:12;;;;;;;6.63;3.50;;;;;;;;;;5086118;28;20394;-65
2021/06/03 03:25:38;;;;;;;6.57;3.30;;;;;;;;;;5087914;28;20702;-66
2021/06/03 03:28:05;;;;;;;6.03;3.58;;;;;;;;;;5086734;28;20850;-65
2021/06/03 03:30:32;;;;;;;5.80;3.50;;;;;;;;;;5084853;28;20406;-66
2021/06/03 03:32:59;;;;;;;8.32;3.67;;;;;;;;;;5079321;28;20401;-66
2021/06/03 03:35:25;;;;;;;5.35;2.95;;;;;;;;;;5082007;28;20426;-65
2021/06/03 03:37:51;;;;;;;10.43;3.70;;;;;;;;;;5078181;28;20448;-66
2021/06/03 03:40:18;;;;;;;6.10;3.67;;;;;;;;;;5062303;28;20405;-66
2021/06/03 03:42:44;;;;;;;5.40;3.20;;;;;;;;;;5059616;28;20412;-66
2021/06/03 03:45:12;;;;;;;5.22;3.55;;;;;;;;;;5059315;28;20557;-66
2021/06/03 03:47:38;;;;;;;5.40;3.47;;;;;;;;;;5063015;28;20394;-65
2021/06/03 03:50:09;;;;;;;5.90;3.60;;;;;;;;;;5066191;28;20722;-65
2021/06/03 03:52:35;;;;;;;7.40;3.80;;;;;;;;;;5067414;28;20431;-66
2021/06/03 03:55:01;;;;;;;6.90;3.30;;;;;;;;;;5062194;28;20521;-65
2021/06/03 03:57:27;;;;;;;6.15;3.70;;;;;;;;;;5065700;28;20917;-65
2021/06/03 03:59:53;;;;;;;7.00;3.67;;;;;;;;;;5068600;28;20427;-66
2021/06/03 04:02:19;;;;;;;5.68;3.40;;;;;;;;;;5060591;28;20398;-66
2021/06/03 04:04:45;;;;;;;6.03;3.37;;;;;;;;;;5063734;28;20391;-65
2021/06/03 04:07:11;;;;;;;6.73;3.30;;;;;;;;;;5064560;28;20410;-66
2021/06/03 04:09:37;;;;;;;7.37;3.80;;;;;;;;;;5063975;28;20403;-65
2021/06/03 04:12:03;;;;;;;7.30;4.00;;;;;;;;;;5067838;28;20857;-66
2021/06/03 04:14:29;;;;;;;8.57;3.80;;;;;;;;;;5062326;28;20464;-65
2021/06/03 04:16:55;;;;;;;6.22;3.67;;;;;;;;;;5065728;28;20423;-66
2021/06/03 04:19:21;;;;;;;6.60;3.78;;;;;;;;;;5060825;28;20388;-65
2021/06/03 04:21:47;;;;;;;8.65;3.47;;;;;;;;;;5065370;28;20407;-66
2021/06/03 04:24:13;;;;;;;5.55;3.70;;;;;;;;;;5060786;28;20396;-65
2021/06/03 04:26:39;;;;;;;5.82;3.78;;;;;;;;;;5062755;28;20398;-66
2021/06/03 04:29:05;;;;;;;9.57;4.30;;;;;;;;;;5063175;28;20725;-66
2021/06/03 04:31:31;;;;;;;7.15;4.30;;;;;;;;;;5060267;28;20401;-65
2021/06/03 04:33:58;;;;;;;7.57;3.72;;;;;;;;;;5064105;28;20906;-65
2021/06/03 04:36:24;;;;;;;9.65;3.72;;;;;;;;;;5066734;28;20870;-66
2021/06/03 04:38:50;;;;;;;7.40;3.80;;;;;;;;;;5063735;28;20472;-65
2021/06/03 04:41:16;;;;;;;5.37;3.80;;;;;;;;;;5061417;28;20453;-67
2021/06/03 04:43:43;;;;;;;6.53;3.70;;;;;;;;;;5063326;28;20863;-65
2021/06/03 04:46:09;;;;;;;8.10;3.72;;;;;;;;;;5064647;28;20920;-66
2021/06/03 04:48:36;;;;;;;5.75;3.92;;;;;;;;;;5058934;28;20400;-66
2021/06/03 04:51:01;;;;;;;6.63;4.05;;;;;;;;;;5062943;28;20431;-66
2021/06/03 04:53:28;;;;;;;6.15;3.78;;;;;;;;;;5055766;28;20423;-65
2021/06/03 04:55:54;;;;;;;6.25;4.20;;;;;;;;;;5056051;28;20482;-65
2021/06/03 04:58:20;;;;;;;7.30;4.17;;;;;;;;;;5060853;28;20389;-65
2021/06/03 05:00:46;;;;;;;6.57;4.30;;;;;;;;;;5059500;28;20407;-66
2021/06/03 05:03:14;;;;;;;8.57;3.60;;;;;;;;;;5053778;28;20395;-66
2021/06/03 05:05:40;;;;;;;6.18;3.95;;;;;;;;;;5079782;28;20384;-65
2021/06/03 05:08:07;;;;;;;7.90;4.20;;;;;;;;;;5063590;28;20396;-65
2021/06/03 05:10:33;;;;;;;6.80;3.83;;;;;;;;;;5046543;28;20840;-65
2021/06/03 05:13:00;;;;;;;7.10;4.07;;;;;;;;;;5060328;28;20480;-65
2021/06/03 05:15:26;;;;;;;6.47;4.00;;;;;;;;;;5061612;28;20435;-66
2021/06/03 05:17:54;;;;;;;7.60;4.00;;;;;;;;;;5068214;28;20553;-66
2021/06/03 05:20:21;;;;;;;7.18;4.30;;;;;;;;;;5062602;28;20879;-66
2021/06/03 05:22:47;;;;;;;6.90;3.67;;;;;;;;;;5063829;28;20478;-65
2021/06/03 05:25:15;;;;;;;5.90;4.18;;;;;;;;;;5061704;28;20391;-66
2021/06/03 05:27:41;;;;;;;9.90;4.65;;;;;;;;;;5062757;28;20396;-66
2021/06/03 05:30:08;;;;;;;6.95;4.25;;;;;;;;;;5062183;28;20932;-66
2021/06/03 05:32:35;;;;;;;8.13;4.30;;;;;;;;;;5068092;28;20458;-66
2021/06/03 05:35:01;;;;;;;7.55;4.47;;;;;;;;;;5057416;28;20946;-65
2021/06/03 05:37:27;;;;;;;6.63;4.30;;;;;;;;;;5053319;28;20403;-65
2021/06/03 05:39:53;;;;;;;8.55;4.55;;;;;;;;;;5063817;28;20400;-65
2021/06/03 05:42:19;;;;;;;7.68;4.65;;;;;;;;;;5055582;28;20405;-65
2021/06/03 05:44:45;;;;;;;6.87;4.73;;;;;;;;;;5059503;28;20423;-66
2021/06/03 05:47:11;;;;;;;6.60;4.50;;;;;;;;;;5060650;28;20402;-66
2021/06/03 05:49:37;;;;;;;6.68;4.70;;;;;;;;;;5062383;28;20413;-66
2021/06/03 05:52:04;;;;;;;7.57;4.75;;;;;;;;;;5053105;28;20391;-66
2021/06/03 05:54:30;;;;;;;10.25;5.78;;;;;;;;;;5052583;28;20427;-66
2021/06/03 05:56:56;;;;;;;6.75;4.80;;;;;;;;;;5061543;28;20499;-66
2021/06/03 05:59:22;;;;;;;8.40;4.85;;;;;;;;;;5045109;28;20861;-67
2021/06/03 06:01:49;;;;;;;9.13;5.35;;;;;;;;;;5050806;28;20389;-65
2021/06/03 06:05:56;;;;;;;8.03;5.63;;;;;;;;;;5053690;28;20413;-65
2021/06/03 06:07:00;;;;;;;7.85;5.70;;;;;;;;;;5065219;28;20869;-66
2021/06/03 06:09:26;;;;;;;11.23;5.30;;;;;;;;;;5066280;28;20445;-66
2021/06/03 06:11:52;;;;;;;8.98;5.68;;;;;;;;;;5070998;28;20395;-66
2021/06/03 06:14:19;;;;;;;7.95;5.40;;;;;;;;;;5069760;28;20441;-66
2021/06/03 06:16:45;;;;;;;6.63;4.88;;;;;;;;;;5065954;28;20456;-66
2021/06/03 06:19:11;;;;;;;9.70;5.68;;;;;;;;;;5063453;28;20396;-65
2021/06/03 06:21:37;;;;;;;7.72;5.60;;;;;;;;;;5058007;28;20737;-66
2021/06/03 06:24:04;;;;;;;9.77;5.57;;;;;;;;;;5060549;28;20402;-67
2021/06/03 06:26:30;;;;;;;8.80;5.18;;;;;;;;;;5056115;28;20877;-66
2021/06/03 06:28:57;;;;;;;9.32;6.00;;;;;;;;;;5068629;28;20421;-65
2021/06/03 06:31:24;;;;;;;7.95;5.68;;;;;;;;;;5063829;28;20484;-66
2021/06/03 06:33:50;;;;;;;9.20;6.22;;;;;;;;;;5068773;28;20855;-66
2021/06/03 06:36:16;;;;;;;8.80;5.93;;;;;;;;;;5067450;28;20419;-65
2021/06/03 06:38:42;;;;;;;9.60;7.13;;;;;;;;;;5065742;28;20924;-66
2021/06/03 06:41:10;;;;;;;9.57;7.15;;;;;;;;;;5062247;28;20449;-67
2021/06/03 06:43:36;;;;;;;9.80;7.10;;;;;;;;;;5063202;28;20409;-66
2021/06/03 06:46:02;;;;;;;8.65;7.10;;;;;;;;;;5067415;28;20395;-66
2021/06/03 06:48:28;;;;;;;9.77;6.20;;;;;;;;;;5067278;28;20465;-66
2021/06/03 06:50:54;;;;;;;11.40;6.95;;;;;;;;;;5068675;28;20403;-66
2021/06/03 06:53:21;;;;;;;11.25;7.53;;;;;;;;;;5066158;28;20397;-66
2021/06/03 06:55:47;;;;;;;10.25;6.75;;;;;;;;;;5066800;28;20427;-66
2021/06/03 06:58:14;;;;;;;9.00;6.72;;;;;;;;;;5065388;28;20415;-66
2021/06/03 07:00:40;;;;;;;9.85;6.80;;;;;;;;;;5062858;28;20431;-67
2021/06/03 07:03:08;;;;;;;8.52;6.60;;;;;;;;;;5066832;28;20809;-66
2021/06/03 07:05:34;;;;;;;12.02;7.72;;;;;;;;;;5057750;28;20764;-66
2021/06/03 07:08:00;;;;;;;12.15;8.38;;;;;;;;;;5071237;28;20875;-66
2021/06/03 07:10:26;;;;;;;12.98;8.10;;;;;;;;;;5068184;28;20392;-66
2021/06/03 07:12:52;;;;;;;12.65;8.05;;;;;;;;;;5069921;28;20416;-66
2021/06/03 07:15:19;;;;;;;11.88;7.93;;;;;;;;;;5063703;28;21086;-66
2021/06/03 07:17:45;;;;;;;13.05;9.13;;;;;;;;;;5069610;28;20394;-66
2021/06/03 07:20:13;;;;;;;11.02;7.22;;;;;;;;;;5066936;28;20466;-66
2021/06/03 07:22:40;;;;;;;13.43;9.20;;;;;;;;;;5053056;28;20783;-67
2021/06/03 07:25:07;;;;;;;11.00;7.80;;;;;;;;;;5064004;28;21129;-66
2021/06/03 07:27:33;;;;;;;11.48;7.30;;;;;;;;;;5057197;28;20390;-66
2021/06/03 07:30:00;;;;;;;13.18;8.25;;;;;;;;;;5066968;28;20432;-66
2021/06/03 07:32:29;;;;;;;10.77;7.38;;;;;;;;;;5059984;28;20403;-66
2021/06/03 07:34:55;;;;;;;14.00;8.00;;;;;;;;;;5066499;28;20449;-66
2021/06/03 07:37:21;;;;;;;9.93;7.67;;;;;;;;;;5068852;28;20415;-66
2021/06/03 07:39:47;;;;;;;10.23;8.13;;;;;;;;;;5066207;28;20403;-66
2021/06/03 07:42:13;;;;;;;11.10;7.55;;;;;;;;;;5069197;28;20391;-66
2021/06/03 07:44:39;;;;;;;11.00;7.20;;;;;;;;;;5064773;28;20402;-67
2021/06/03 07:47:05;;;;;;;11.07;7.78;;;;;;;;;;5067792;28;20393;-67
2021/06/03 07:49:32;;;;;;;11.97;8.03;;;;;;;;;;5056382;28;20722;-67
2021/06/03 07:52:02;;;;;;;11.15;8.48;;;;;;;;;;5051931;28;20832;-67
2021/06/03 07:54:28;;;;;;;11.73;7.80;;;;;;;;;;5067795;28;20419;-67
2021/06/03 07:56:54;;;;;;;10.45;7.57;;;;;;;;;;5065526;28;20400;-67
2021/06/03 07:59:20;;;;;;;11.63;8.05;;;;;;;;;;5063109;28;20414;-68
2021/06/03 08:01:46;;;;;;;9.77;6.88;;;;;;;;;;5056270;28;21360;-66
2021/06/03 08:04:12;;;;;;;10.27;7.97;;;;;;;;;;5064415;28;20433;-67
2021/06/03 08:06:38;;;;;;;10.73;8.07;;;;;;;;;;5069951;28;20494;-66
2021/06/03 08:09:04;;;;;;;12.60;8.80;;;;;;;;;;5064669;28;20401;-66
2021/06/03 08:11:30;;;;;;;13.25;9.13;;;;;;;;;;5068751;28;21699;-67
2021/06/03 08:13:56;;;;;;;12.60;8.32;;;;;;;;;;5068656;28;20389;-67
2021/06/03 08:16:22;;;;;;;10.02;7.80;;;;;;;;;;5062059;28;20432;-67
2021/06/03 08:18:48;;;;;;;10.65;7.38;;;;;;;;;;5072033;28;20426;-67
2021/06/03 08:21:14;;;;;;;11.80;8.75;;;;;;;;;;5066001;28;20397;-67
2021/06/03 08:23:40;;;;;;;12.10;8.35;;;;;;;;;;5073574;28;20715;-67
2021/06/03 08:26:06;;;;;;;13.40;7.60;;;;;;;;;;5067408;28;20399;-67
2021/06/03 08:28:32;;;;;;;10.43;7.30;;;;;;;;;;5066759;28;20431;-67
2021/06/03 08:31:00;;;;;;;11.02;8.02;;;;;;;;;;5066953;28;21004;-67
2021/06/03 08:33:26;;;;;;;10.85;7.13;;;;;;;;;;5062236;28;20493;-68
2021/06/03 08:35:52;;;;;;;10.10;6.80;;;;;;;;;;5068835;28;20490;-66
2021/06/03 08:38:18;;;;;;;8.95;6.30;;;;;;;;;;5049259;28;20502;-68
2021/06/03 08:40:52;;;;;;;9.48;7.15;;;;;;;;;;5042713;28;20393;-67
2021/06/03 08:43:21;;;;;;;8.15;6.03;;;;;;;;;;5039386;28;20577;-67
2021/06/03 08:45:47;;;;;;;8.75;7.07;;;;;;;;;;5047865;28;20491;-68
2021/06/03 08:48:14;;;;;;;11.60;7.10;;;;;;;;;;5046906;28;20490;-68
2021/06/03 08:50:42;;;;;;;10.80;6.85;;;;;;;;;;5044076;28;21020;-68
2021/06/03 08:53:08;;;;;;;9.65;6.70;;;;;;;;;;5041949;28;20720;-67
2021/06/03 08:58:21;;;;;;;8.15;5.47;;;;;;;;;;5043556;28;20412;-68
2021/06/03 09:00:48;;;;;;;8.88;5.80;;;;;;;;;;5045475;28;20405;-68
2021/06/03 09:03:15;;;;;;;11.75;6.65;;;;;;;;;;5046416;28;20405;-67
2021/06/03 09:05:41;;;;;;;9.35;5.70;;;;;;;;;;5041326;28;20714;-67
2021/06/03 09:08:19;;;;;;;9.52;5.88;;;;;;;;;;5049137;28;20389;-67
2021/06/03 09:10:46;;;;;;;9.88;5.50;;;;;;;;;;5054310;28;20405;-68
2021/06/03 09:13:14;;;;;;;8.45;5.80;;;;;;;;;;5047242;28;20401;-66
2021/06/03 09:15:44;;;;;;;8.18;6.25;;;;;;;;;;5041195;28;20476;-67
2021/06/03 09:18:11;;;;;;;12.05;7.72;;;;;;;;;;5046289;28;20393;-66
2021/06/03 09:20:38;;;;;;;9.50;6.22;;;;;;;;;;5048630;28;20401;-66
2021/06/03 09:23:04;;;;;;;9.23;6.55;;;;;;;;;;5056319;28;20880;-66
2021/06/03 09:25:42;;;;;;;8.90;6.63;;;;;;;;;;5055024;28;20507;-66
2021/06/03 09:28:22;;;;;;;7.68;5.25;;;;;;;;;;5052892;28;20482;-66
2021/06/03 09:30:57;;;;;;;8.52;5.45;;;;;;;;;;5051531;28;20446;-66
2021/06/03 09:33:35;;;;;;;7.55;4.50;;;;;;;;;;5044850;28;20414;-66
2021/06/03 09:36:01;;;;;;;8.82;4.82;;;;;;;;;;5048598;28;20520;-67
2021/06/03 09:38:27;;;;;;;8.88;5.00;;;;;;;;;;5067204;28;20498;-67
2021/06/03 09:40:53;;;;;;;6.55;3.85;;;;;;;;;;5053333;28;20868;-66
2021/06/03 09:43:20;;;;;;;7.10;3.65;;;;;;;;;;5065710;28;21085;-67
2021/06/03 09:45:56;;;;;;;6.18;3.60;;;;;;;;;;5065737;28;21180;-67
2021/06/03 09:48:54;;;;;;;6.18;3.63;;;;;;;;;;5059174;28;20407;-67
2021/06/03 09:51:22;;;;;;;9.30;4.00;;;;;;;;;;5023823;28;20412;-67
2021/06/03 09:53:55;;;;;;;7.03;3.50;;;;;;;;;;5061137;28;20466;-67
2021/06/03 09:56:30;;;;;;;7.07;3.47;;;;;;;;;;5066088;28;20395;-67
2021/06/03 09:58:58;;;;;;;7.45;3.60;;;;;;;;;;5067415;28;20744;-67
2021/06/03 10:01:42;;;;;;;7.00;3.20;;;;;;;;;;5066874;28;20482;-67
2021/06/03 10:04:09;;;;;;;6.38;3.63;;;;;;;;;;5063771;28;20403;-67
2021/06/03 10:06:51;;;;;;;8.50;4.00;;;;;;;;;;5065984;28;20878;-68
2021/06/03 10:09:19;;;;;;;10.05;4.60;;;;;;;;;;5064908;28;20513;-67
2021/06/03 10:11:46;;;;;;;8.63;4.05;;;;;;;;;;5069363;28;20973;-67
2021/06/03 10:14:14;;;;;;;8.65;4.70;;;;;;;;;;5065446;28;20792;-67
2021/06/03 10:16:40;;;;;;;8.23;4.22;;;;;;;;;;5066326;28;20538;-67
2021/06/03 10:19:21;;;;;;;10.48;4.70;;;;;;;;;;5062247;28;20460;-67
2021/06/03 10:22:06;;;;;;;7.18;4.57;;;;;;;;;;5064343;28;20470;-67
2021/06/03 10:24:50;;;;;;;10.13;4.73;;;;;;;;;;5066892;28;20486;-68
2021/06/03 10:27:17;;;;;;;6.20;3.40;;;;;;;;;;5066972;28;20395;-67
2021/06/03 10:29:44;;;;;;;6.63;3.40;;;;;;;;;;5064663;28;20468;-67
2021/06/03 10:32:10;;;;;;;7.60;4.43;;;;;;;;;;5059922;28;20408;-67
2021/06/03 10:34:36;;;;;;;6.53;3.67;;;;;;;;;;5059963;28;20473;-67
2021/06/03 10:37:03;;;;;;;7.50;3.90;;;;;;;;;;5064027;28;20867;-67
2021/06/03 10:39:30;;;;;;;7.65;4.35;;;;;;;;;;5064543;28;20457;-68
2021/06/03 10:41:56;;;;;;;10.15;4.95;;;;;;;;;;5056390;28;20428;-67
2021/06/03 10:44:22;;;;;;;7.72;4.95;;;;;;;;;;5062498;28;20404;-67
2021/06/03 10:46:48;;;;;;;7.07;4.80;;;;;;;;;;5062044;28;20949;-68
2021/06/03 10:49:16;;;;;;;9.33;4.83;;;;;;;;;;5056326;28;20478;-67
2021/06/03 10:51:42;;;;;;;8.90;4.87;;;;;;;;;;5062864;28;20384;-67
2021/06/03 10:54:08;;;;;;;6.82;3.70;;;;;;;;;;5061508;28;20385;-68
2021/06/03 10:56:34;;;;;;;8.15;4.25;;;;;;;;;;5057673;28;20426;-68
2021/06/03 10:59:03;;;;;;;6.95;4.05;;;;;;;;;;5058894;28;20435;-68
2021/06/03 11:01:31;;;;;;;6.70;4.10;;;;;;;;;;5065659;28;20889;-68
2021/06/03 11:04:09;;;;;;;5.35;4.22;;;;;;;;;;5062441;28;20397;-67
2021/06/03 11:06:44;;;;;;;5.90;3.63;;;;;;;;;;5061296;28;20492;-68
2021/06/03 11:09:11;;;;;;;5.95;4.03;;;;;;;;;;5061891;28;20387;-67
2021/06/03 11:11:38;;;;;;;6.05;3.95;;;;;;;;;;5064185;28;20410;-67
2021/06/03 11:14:15;;;;;;;6.57;3.78;;;;;;;;;;5060070;28;20703;-68
2021/06/03 11:16:40;;;;;;;6.90;3.72;;;;;;;;;;5059546;28;20428;-67
2021/06/03 11:19:13;;;;;;;9.90;4.30;;;;;;;;;;5057766;28;20913;-67
2021/06/03 11:21:42;;;;;;;6.70;4.10;;;;;;;;;;5055691;28;20611;-67
2021/06/03 11:24:09;;;;;;;7.70;3.78;;;;;;;;;;5063186;28;20398;-67
2021/06/03 11:26:38;;;;;;;6.50;3.55;;;;;;;;;;5059309;28;20396;-67
2021/06/03 11:29:08;;;;;;;5.93;3.97;;;;;;;;;;5062563;28;20407;-67
2021/06/03 11:31:34;;;;;;;8.60;4.63;;;;;;;;;;5058532;28;20403;-67
2021/06/03 11:34:19;;;;;;;10.75;5.18;;;;;;;;;;5063222;28;20396;-67
2021/06/03 11:36:55;;;;;;;7.32;4.70;;;;;;;;;;5057986;28;20425;-67
2021/06/03 11:39:33;;;;;;;6.38;4.45;;;;;;;;;;5057842;28;20586;-67
2021/06/03 11:42:19;;;;;;;7.38;3.92;;;;;;;;;;5061749;28;20724;-67
2021/06/03 11:45:03;;;;;;;7.55;4.70;;;;;;;;;;5063944;28;20415;-67
2021/06/03 11:47:38;;;;;;;7.15;4.40;;;;;;;;;;5056639;28;20397;-67
2021/06/03 11:50:04;;;;;;;8.38;4.65;;;;;;;;;;5048107;28;20780;-67
2021/06/03 11:52:32;;;;;;;6.47;4.55;;;;;;;;;;5054559;28;20440;-67
2021/06/03 11:55:03;;;;;;;8.35;5.07;;;;;;;;;;5056307;28;20432;-66
2021/06/03 11:57:30;;;;;;;7.32;4.53;;;;;;;;;;5056375;28;20462;-67
2021/06/03 11:59:58;;;;;;;9.23;4.57;;;;;;;;;;5061420;28;20821;-67
2021/06/03 12:02:28;;;;;;;7.07;4.30;;;;;;;;;;5057087;28;20699;-67
2021/06/03 12:05:12;;;;;;;9.25;4.88;;;;;;;;;;5059486;28;20446;-68
2021/06/03 12:07:41;;;;;;;7.10;4.35;;;;;;;;;;5055973;28;20872;-67
2021/06/03 12:10:07;;;;;;;5.93;3.90;;;;;;;;;;5057575;28;20421;-67
2021/06/03 12:12:35;;;;;;;7.97;3.63;;;;;;;;;;5059797;28;20732;-68
2021/06/03 12:15:00;;;;;;;6.95;3.80;;;;;;;;;;5054734;28;20432;-67
2021/06/03 12:17:26;;;;;;;6.32;3.83;;;;;;;;;;5061975;28;20397;-68
2021/06/03 12:19:53;;;;;;;6.40;4.00;;;;;;;;;;5060712;28;20429;-68
2021/06/03 12:22:21;;;;;;;6.80;3.55;;;;;;;;;;5060318;28;20469;-67
2021/06/03 12:24:51;;;;;;;8.10;3.90;;;;;;;;;;5059346;28;20877;-67
2021/06/03 12:27:27;;;;;;;7.13;4.07;;;;;;;;;;5062796;28;20407;-67
2021/06/03 12:29:54;;;;;;;8.55;4.13;;;;;;;;;;5052614;28;20399;-67
2021/06/03 12:32:22;;;;;;;8.18;4.15;;;;;;;;;;5064668;28;20744;-67
2021/06/03 12:34:49;;;;;;;11.73;4.17;;;;;;;;;;5064388;28;20477;-66
2021/06/03 12:37:19;;;;;;;6.85;3.40;;;;;;;;;;5055991;28;20416;-67
2021/06/03 12:39:45;;;;;;;7.30;4.60;;;;;;;;;;5060975;28;20417;-66
2021/06/03 12:42:11;;;;;;;7.03;3.63;;;;;;;;;;5061627;28;20397;-67
2021/06/03 12:44:37;;;;;;;6.80;3.72;;;;;;;;;;5058173;28;20482;-67
2021/06/03 12:47:07;;;;;;;6.35;3.22;;;;;;;;;;5059129;28;20401;-67
2021/06/03 12:49:33;;;;;;;7.63;3.35;;;;;;;;;;5058218;28;20383;-68
2021/06/03 12:52:04;;;;;;;7.75;3.92;;;;;;;;;;5058962;28;20515;-66
2021/06/03 12:54:34;;;;;;;6.80;3.65;;;;;;;;;;5055452;28;20571;-66
2021/06/03 12:57:01;;;;;;;6.32;3.58;;;;;;;;;;5054055;28;20408;-67
2021/06/03 12:59:29;;;;;;;6.07;3.88;;;;;;;;;;5055974;28;20386;-66
2021/06/03 13:02:05;;;;;;;8.43;4.07;;;;;;;;;;5058698;28;20433;-66
2021/06/03 13:04:33;;;;;;;9.18;4.47;;;;;;;;;;5060368;28;20590;-67
2021/06/03 13:06:58;;;;;;;8.33;4.90;;;;;;;;;;5058181;28;20702;-67
2021/06/03 13:09:24;;;;;;;8.50;5.00;;;;;;;;;;5057725;28;20402;-67
2021/06/03 13:11:50;;;;;;;9.05;4.90;;;;;;;;;;5057078;28;20582;-67
2021/06/03 13:14:20;;;;;;;8.20;4.63;;;;;;;;;;5054994;28;20431;-67
2021/06/03 13:16:47;;;;;;;7.10;4.20;;;;;;;;;;5059820;28;20399;-67
2021/06/03 13:19:15;;;;;;;10.82;5.25;;;;;;;;;;5059323;28;20729;-67
2021/06/03 13:21:41;;;;;;;7.80;4.30;;;;;;;;;;5061012;28;20396;-67
2021/06/03 13:24:20;;;;;;;8.18;4.95;;;;;;;;;;5060995;28;20727;-67
2021/06/03 13:26:46;;;;;;;6.72;4.05;;;;;;;;;;5060880;28;20451;-67
2021/06/03 13:29:13;;;;;;;6.68;3.55;;;;;;;;;;5059004;28;20428;-67
2021/06/03 13:31:41;;;;;;;7.50;5.00;;;;;;;;;;5057875;28;20870;-67
2021/06/03 13:34:25;;;;;;;10.57;5.90;;;;;;;;;;5060493;28;20466;-67
2021/06/03 13:37:17;;;;;;;6.88;4.72;;;;;;;;;;5054999;28;20417;-67
2021/06/03 13:39:52;;;;;;;8.25;4.68;;;;;;;;;;5037470;28;20455;-67
2021/06/03 13:42:22;;;;;;;8.18;4.85;;;;;;;;;;5060944;28;20794;-67
2021/06/03 13:44:57;;;;;;;8.13;5.50;;;;;;;;;;5045331;28;20870;-67
2021/06/03 13:47:41;;;;;;;7.25;4.53;;;;;;;;;;5059126;28;20417;-67
2021/06/03 13:50:16;;;;;;;8.63;4.28;;;;;;;;;;5059684;28;20400;-67
2021/06/03 13:52:43;;;;;;;9.30;6.40;;;;;;;;;;5059542;28;20488;-67
2021/06/03 13:55:17;;;;;;;8.52;4.50;;;;;;;;;;5060051;28;20508;-67
2021/06/03 13:57:44;;;;;;;6.63;4.90;;;;;;;;;;5056077;28;20405;-66
2021/06/03 14:00:10;;;;;;;7.85;5.25;;;;;;;;;;5062923;28;20782;-67
2021/06/03 14:02:36;;;;;;;7.93;4.70;;;;;;;;;;5052101;28;20866;-66
2021/06/03 14:05:20;;;;;;;6.43;4.37;;;;;;;;;;5061903;28;20546;-67
2021/06/03 14:08:04;;;;;;;8.48;5.78;;;;;;;;;;5060896;28;20407;-67
2021/06/03 14:10:31;;;;;;;8.00;5.13;;;;;;;;;;5057121;28;20534;-67
2021/06/03 14:13:04;;;;;;;7.10;5.30;;;;;;;;;;5059395;28;20402;-67
2021/06/03 14:15:42;;;;;;;8.60;5.30;;;;;;;;;;5055406;28;20428;-67
2021/06/03 14:18:08;;;;;;;7.55;5.35;;;;;;;;;;5059181;28;20400;-67
2021/06/03 14:20:35;;;;;;;8.18;5.35;;;;;;;;;;5059456;28;20408;-68
2021/06/03 14:23:01;;;;;;;7.82;5.13;;;;;;;;;;5060164;28;21146;-67
2021/06/03 14:25:39;;;;;;;8.20;5.35;;;;;;;;;;5063895;28;20486;-67
2021/06/03 14:28:16;;;;;;;8.90;5.10;;;;;;;;;;5059656;28;20404;-66
2021/06/03 14:30:51;;;;;;;8.88;5.68;;;;;;;;;;5061328;28;20432;-67
2021/06/03 14:33:18;;;;;;;8.48;5.30;;;;;;;;;;5054539;28;20943;-67
2021/06/03 14:35:46;;;;;;;8.60;5.70;;;;;;;;;;5061845;28;20476;-67
2021/06/03 14:38:13;;;;;;;10.30;6.28;;;;;;;;;;5061811;28;20418;-68
2021/06/03 14:40:40;;;;;;;11.18;7.30;;;;;;;;;;5064920;28;20396;-68
2021/06/03 14:43:17;;;;;;;15.15;7.38;;;;;;;;;;5064142;28;20484;-68
2021/06/03 14:45:44;;;;;;;15.48;7.78;;;;;;;;;;5062936;28;20408;-70
2021/06/03 14:48:11;;;;;;;17.38;7.93;;;;;;;;;;5064397;28;20490;-69
2021/06/03 14:50:38;;;;;;;14.27;8.50;;;;;;;;;;5064727;28;20400;-70